sensor_id;sensor_type;location;lat;lon;timestamp;pressure;altitude;pressure_sealevel;temperature;humidity
77871;BME280;67067;46.850;7.578;2023-08-12T00:00:46;95746.69;;;17.74;52.43
77871;BME280;67067;46.850;7.578;2023-08-12T00:01:48;95741.66;;;17.73;51.94
77871;BME280;67067;46.850;7.578;2023-08-12T00:02:50;95740.84;;;17.72;51.89
77871;BME280;67067;46.850;7.578;2023-08-12T00:03:53;95737.91;;;17.74;51.95
77871;BME280;67067;46.850;7.578;2023-08-12T00:04:58;95736.06;;;17.69;51.86
77871;BME280;67067;46.850;7.578;2023-08-12T00:06:00;95738.47;;;17.71;52.26
77871;BME280;67067;46.850;7.578;2023-08-12T00:07:03;95739.81;;;17.68;51.91
77871;BME280;67067;46.850;7.578;2023-08-12T00:08:07;95742.75;;;17.67;52.14
77871;BME280;67067;46.850;7.578;2023-08-12T00:09:09;95739.41;;;17.56;52.16
77871;BME280;67067;46.850;7.578;2023-08-12T00:10:15;95741.97;;;17.66;52.05
77871;BME280;67067;46.850;7.578;2023-08-12T00:11:19;95730.97;;;17.68;51.70
77871;BME280;67067;46.850;7.578;2023-08-12T00:12:21;95742.09;;;17.56;52.19
77871;BME280;67067;46.850;7.578;2023-08-12T00:13:23;95737.97;;;17.63;51.57
77871;BME280;67067;46.850;7.578;2023-08-12T00:14:25;95744.94;;;17.64;51.70
77871;BME280;67067;46.850;7.578;2023-08-12T00:15:27;95738.22;;;17.67;51.70
77871;BME280;67067;46.850;7.578;2023-08-12T00:16:28;95738.22;;;17.67;51.69
77871;BME280;67067;46.850;7.578;2023-08-12T00:17:30;95736.75;;;17.56;51.82
77871;BME280;67067;46.850;7.578;2023-08-12T00:18:32;95728.34;;;17.62;52.02
77871;BME280;67067;46.850;7.578;2023-08-12T00:19:38;95732.88;;;17.67;51.85
77871;BME280;67067;46.850;7.578;2023-08-12T00:20:39;95734.59;;;17.58;52.16
77871;BME280;67067;46.850;7.578;2023-08-12T00:21:43;95733.38;;;17.69;51.69
77871;BME280;67067;46.850;7.578;2023-08-12T00:22:48;95733.91;;;17.71;51.92
77871;BME280;67067;46.850;7.578;2023-08-12T00:23:49;95736.06;;;17.69;52.00
77871;BME280;67067;46.850;7.578;2023-08-12T00:24:53;95734.47;;;17.68;51.84
77871;BME280;67067;46.850;7.578;2023-08-12T00:25:58;95732.31;;;17.70;52.42
77871;BME280;67067;46.850;7.578;2023-08-12T00:27:00;95730.66;;;17.74;52.40
77871;BME280;67067;46.850;7.578;2023-08-12T00:28:02;95730.25;;;17.62;52.30
77871;BME280;67067;46.850;7.578;2023-08-12T00:29:04;95730.00;;;17.58;52.60
77871;BME280;67067;46.850;7.578;2023-08-12T00:30:06;95729.13;;;17.68;52.56
77871;BME280;67067;46.850;7.578;2023-08-12T00:31:10;95736.56;;;17.71;52.31
77871;BME280;67067;46.850;7.578;2023-08-12T00:32:15;95741.09;;;17.76;52.53
77871;BME280;67067;46.850;7.578;2023-08-12T00:33:16;95726.88;;;17.75;52.39
77871;BME280;67067;46.850;7.578;2023-08-12T00:34:22;95736.50;;;17.76;52.24
77871;BME280;67067;46.850;7.578;2023-08-12T00:35:24;95736.75;;;17.80;52.28
77871;BME280;67067;46.850;7.578;2023-08-12T00:36:28;95739.25;;;17.71;52.60
77871;BME280;67067;46.850;7.578;2023-08-12T00:37:32;95739.69;;;17.78;52.37
77871;BME280;67067;46.850;7.578;2023-08-12T00:38:34;95732.81;;;17.72;52.73
77871;BME280;67067;46.850;7.578;2023-08-12T00:39:36;95728.41;;;17.82;52.25
77871;BME280;67067;46.850;7.578;2023-08-12T00:40:37;95731.34;;;17.85;52.10
77871;BME280;67067;46.850;7.578;2023-08-12T00:41:39;95732.34;;;17.89;52.57
77871;BME280;67067;46.850;7.578;2023-08-12T00:42:41;95745.06;;;17.78;52.56
77871;BME280;67067;46.850;7.578;2023-08-12T00:43:42;95737.97;;;17.88;52.54
77871;BME280;67067;46.850;7.578;2023-08-12T00:44:44;95733.06;;;17.95;52.13
77871;BME280;67067;46.850;7.578;2023-08-12T00:45:46;95729.44;;;17.86;52.49
77871;BME280;67067;46.850;7.578;2023-08-12T00:46:48;95738.03;;;17.83;53.01
77871;BME280;67067;46.850;7.578;2023-08-12T00:47:51;95729.88;;;17.93;52.74
77871;BME280;67067;46.850;7.578;2023-08-12T00:48:53;95728.22;;;17.97;52.15
77871;BME280;67067;46.850;7.578;2023-08-12T00:49:54;95725.69;;;17.87;52.25
77871;BME280;67067;46.850;7.578;2023-08-12T00:50:59;95724.75;;;17.97;52.56
77871;BME280;67067;46.850;7.578;2023-08-12T00:52:01;95721.22;;;18.01;52.13
77871;BME280;67067;46.850;7.578;2023-08-12T00:53:06;95717.88;;;17.90;52.13
77871;BME280;67067;46.850;7.578;2023-08-12T00:54:14;95720.44;;;18.01;51.84
77871;BME280;67067;46.850;7.578;2023-08-12T00:55:16;95720.16;;;18.02;52.03
77871;BME280;67067;46.850;7.578;2023-08-12T00:56:21;95726.22;;;18.08;52.35
77871;BME280;67067;46.850;7.578;2023-08-12T00:57:26;95720.28;;;18.11;52.41
77871;BME280;67067;46.850;7.578;2023-08-12T00:58:30;95720.28;;;18.11;52.07
77871;BME280;67067;46.850;7.578;2023-08-12T00:59:37;95719.00;;;18.08;52.32
77871;BME280;67067;46.850;7.578;2023-08-12T01:00:40;95718.13;;;18.13;52.17
77871;BME280;67067;46.850;7.578;2023-08-12T01:01:47;95724.28;;;18.14;52.21
77871;BME280;67067;46.850;7.578;2023-08-12T01:02:49;95718.94;;;18.14;52.51
77871;BME280;67067;46.850;7.578;2023-08-12T01:03:53;95722.38;;;18.14;52.17
77871;BME280;67067;46.850;7.578;2023-08-12T01:04:56;95716.53;;;18.12;52.17
77871;BME280;67067;46.850;7.578;2023-08-12T01:05:57;95720.25;;;17.92;52.74
77871;BME280;67067;46.850;7.578;2023-08-12T01:07:00;95724.97;;;18.00;52.87
77871;BME280;67067;46.850;7.578;2023-08-12T01:08:02;95718.03;;;17.99;52.51
77871;BME280;67067;46.850;7.578;2023-08-12T01:09:06;95720.69;;;17.99;52.47
77871;BME280;67067;46.850;7.578;2023-08-12T01:10:09;95714.31;;;17.95;52.84
77871;BME280;67067;46.850;7.578;2023-08-12T01:11:24;95718.31;;;17.98;52.54
77871;BME280;67067;46.850;7.578;2023-08-12T01:13:33;95713.03;;;17.92;52.91
77871;BME280;67067;46.850;7.578;2023-08-12T01:15:49;95714.97;;;17.87;52.91
77871;BME280;67067;46.850;7.578;2023-08-12T01:17:00;95717.66;;;17.87;53.13
77871;BME280;67067;46.850;7.578;2023-08-12T01:18:06;95711.56;;;17.81;53.24
77871;BME280;67067;46.850;7.578;2023-08-12T01:19:21;95720.19;;;17.78;53.63
77871;BME280;67067;46.850;7.578;2023-08-12T01:20:28;95716.63;;;17.83;53.40
77871;BME280;67067;46.850;7.578;2023-08-12T01:21:33;95719.81;;;17.85;53.30
77871;BME280;67067;46.850;7.578;2023-08-12T01:22:37;95724.91;;;17.86;53.06
77871;BME280;67067;46.850;7.578;2023-08-12T01:23:45;95723.50;;;17.89;53.27
77871;BME280;67067;46.850;7.578;2023-08-12T01:24:47;95717.38;;;17.88;52.87
77871;BME280;67067;46.850;7.578;2023-08-12T01:25:49;95716.13;;;17.81;53.17
77871;BME280;67067;46.850;7.578;2023-08-12T01:26:50;95712.53;;;17.90;53.18
77871;BME280;67067;46.850;7.578;2023-08-12T01:27:52;95717.72;;;17.82;53.28
77871;BME280;67067;46.850;7.578;2023-08-12T01:28:54;95711.19;;;17.88;53.12
77871;BME280;67067;46.850;7.578;2023-08-12T01:29:59;95724.03;;;17.91;52.84
77871;BME280;67067;46.850;7.578;2023-08-12T01:31:29;95720.13;;;17.83;52.80
77871;BME280;67067;46.850;7.578;2023-08-12T01:32:45;95712.81;;;17.89;52.94
77871;BME280;67067;46.850;7.578;2023-08-12T01:34:20;95716.56;;;17.88;52.69
77871;BME280;67067;46.850;7.578;2023-08-12T01:35:35;95717.56;;;17.92;52.73
77871;BME280;67067;46.850;7.578;2023-08-12T01:36:40;95721.00;;;17.98;53.26
77871;BME280;67067;46.850;7.578;2023-08-12T01:37:49;95715.06;;;18.01;53.12
77871;BME280;67067;46.850;7.578;2023-08-12T01:38:53;95713.75;;;17.98;53.08
77871;BME280;67067;46.850;7.578;2023-08-12T01:40:00;95718.84;;;18.00;52.75
77871;BME280;67067;46.850;7.578;2023-08-12T01:41:06;95710.72;;;18.05;52.46
77871;BME280;67067;46.850;7.578;2023-08-12T01:42:11;95709.44;;;18.02;52.59
77871;BME280;67067;46.850;7.578;2023-08-12T01:43:15;95706.28;;;17.95;52.97
77871;BME280;67067;46.850;7.578;2023-08-12T01:44:17;95708.63;;;18.02;52.86
77871;BME280;67067;46.850;7.578;2023-08-12T01:45:20;95709.94;;;18.04;52.72
77871;BME280;67067;46.850;7.578;2023-08-12T01:46:22;95704.59;;;18.04;52.65
77871;BME280;67067;46.850;7.578;2023-08-12T01:47:24;95708.13;;;18.00;52.82
77871;BME280;67067;46.850;7.578;2023-08-12T01:48:27;95709.44;;;18.02;52.58
77871;BME280;67067;46.850;7.578;2023-08-12T01:49:29;95709.28;;;17.93;52.38
77871;BME280;67067;46.850;7.578;2023-08-12T01:50:33;95700.31;;;18.03;52.25
77871;BME280;67067;46.850;7.578;2023-08-12T01:51:38;95703.78;;;18.04;52.53
77871;BME280;67067;46.850;7.578;2023-08-12T01:52:42;95707.47;;;18.08;52.20
77871;BME280;67067;46.850;7.578;2023-08-12T01:53:44;95706.69;;;18.07;52.33
77871;BME280;67067;46.850;7.578;2023-08-12T01:54:46;95711.25;;;18.07;52.13
77871;BME280;67067;46.850;7.578;2023-08-12T01:55:49;95704.34;;;18.01;52.28
77871;BME280;67067;46.850;7.578;2023-08-12T01:56:51;95700.75;;;18.11;52.48
77871;BME280;67067;46.850;7.578;2023-08-12T01:57:53;95698.59;;;18.13;52.17
77871;BME280;67067;46.850;7.578;2023-08-12T01:58:54;95697.66;;;18.03;52.19
77871;BME280;67067;46.850;7.578;2023-08-12T01:59:56;95694.31;;;18.12;52.25
77871;BME280;67067;46.850;7.578;2023-08-12T02:00:58;95695.34;;;18.16;52.18
77871;BME280;67067;46.850;7.578;2023-08-12T02:01:59;95699.00;;;18.01;52.78
77871;BME280;67067;46.850;7.578;2023-08-12T02:03:04;95691.72;;;18.06;52.51
77871;BME280;67067;46.850;7.578;2023-08-12T02:04:06;95697.34;;;18.05;52.75
77871;BME280;67067;46.850;7.578;2023-08-12T02:05:07;95696.16;;;17.92;53.15
77871;BME280;67067;46.850;7.578;2023-08-12T02:06:09;95691.75;;;18.01;53.09
77871;BME280;67067;46.850;7.578;2023-08-12T02:07:11;95698.19;;;18.00;53.12
77871;BME280;67067;46.850;7.578;2023-08-12T02:08:13;95698.72;;;18.02;52.96
77871;BME280;67067;46.850;7.578;2023-08-12T02:09:15;95691.38;;;17.89;53.17
77871;BME280;67067;46.850;7.578;2023-08-12T02:10:19;95692.84;;;18.00;53.31
77871;BME280;67067;46.850;7.578;2023-08-12T02:11:23;95686.97;;;17.98;53.37
77871;BME280;67067;46.850;7.578;2023-08-12T02:12:26;95689.06;;;18.01;52.95
77871;BME280;67067;46.850;7.578;2023-08-12T02:13:31;95688.28;;;18.01;53.34
77871;BME280;67067;46.850;7.578;2023-08-12T02:14:33;95686.97;;;17.98;53.02
77871;BME280;67067;46.850;7.578;2023-08-12T02:15:35;95689.16;;;17.96;53.15
77871;BME280;67067;46.850;7.578;2023-08-12T02:16:38;95684.88;;;17.95;53.31
77871;BME280;67067;46.850;7.578;2023-08-12T02:17:39;95690.09;;;17.86;53.16
77871;BME280;67067;46.850;7.578;2023-08-12T02:18:42;95681.13;;;17.96;53.21
77871;BME280;67067;46.850;7.578;2023-08-12T02:19:44;95680.34;;;17.96;53.52
77871;BME280;67067;46.850;7.578;2023-08-12T02:20:46;95685.59;;;17.82;53.86
77871;BME280;67067;46.850;7.578;2023-08-12T02:21:51;95681.19;;;17.91;53.73
77871;BME280;67067;46.850;7.578;2023-08-12T02:22:53;95678.50;;;17.91;53.41
77871;BME280;67067;46.850;7.578;2023-08-12T02:23:55;95678.50;;;17.91;53.46
77871;BME280;67067;46.850;7.578;2023-08-12T02:24:57;95672.38;;;17.90;53.72
77871;BME280;67067;46.850;7.578;2023-08-12T02:25:58;95675.75;;;17.96;53.59
77871;BME280;67067;46.850;7.578;2023-08-12T02:27:04;95676.34;;;17.93;53.02
77871;BME280;67067;46.850;7.578;2023-08-12T02:28:05;95684.28;;;17.98;52.89
77871;BME280;67067;46.850;7.578;2023-08-12T02:29:09;95686.13;;;18.03;52.88
77871;BME280;67067;46.850;7.578;2023-08-12T02:30:13;95677.00;;;18.04;52.73
77871;BME280;67067;46.850;7.578;2023-08-12T02:31:18;95681.78;;;18.07;52.76
77871;BME280;67067;46.850;7.578;2023-08-12T02:32:19;95682.28;;;18.09;53.11
77871;BME280;67067;46.850;7.578;2023-08-12T02:33:24;95682.00;;;18.11;52.73
77871;BME280;67067;46.850;7.578;2023-08-12T02:34:26;95685.19;;;18.13;52.78
77871;BME280;67067;46.850;7.578;2023-08-12T02:35:28;95683.03;;;18.15;52.63
77871;BME280;67067;46.850;7.578;2023-08-12T02:36:29;95695.47;;;18.05;52.63
77871;BME280;67067;46.850;7.578;2023-08-12T02:37:31;95685.19;;;18.13;52.69
77871;BME280;67067;46.850;7.578;2023-08-12T02:38:33;95694.31;;;18.12;52.97
77871;BME280;67067;46.850;7.578;2023-08-12T02:39:35;95687.38;;;18.11;53.30
77871;BME280;67067;46.850;7.578;2023-08-12T02:40:39;95696.19;;;18.11;53.08
77871;BME280;67067;46.850;7.578;2023-08-12T02:41:44;95691.34;;;18.13;52.72
77871;BME280;67067;46.850;7.578;2023-08-12T02:42:46;95684.38;;;18.12;53.17
77871;BME280;67067;46.850;7.578;2023-08-12T02:43:52;95692.16;;;18.14;53.10
77871;BME280;67067;46.850;7.578;2023-08-12T02:44:56;95690.91;;;18.06;52.92
77871;BME280;67067;46.850;7.578;2023-08-12T02:45:58;95690.97;;;18.20;52.50
77871;BME280;67067;46.850;7.578;2023-08-12T02:47:00;95689.41;;;18.19;52.29
77871;BME280;67067;46.850;7.578;2023-08-12T02:48:02;95681.06;;;18.20;52.42
77871;BME280;67067;46.850;7.578;2023-08-12T02:49:04;95695.53;;;18.19;52.43
77871;BME280;67067;46.850;7.578;2023-08-12T02:50:06;95696.50;;;18.10;52.41
77871;BME280;67067;46.850;7.578;2023-08-12T02:51:09;95692.06;;;18.19;52.20
77871;BME280;67067;46.850;7.578;2023-08-12T02:52:11;95689.41;;;18.19;52.52
77871;BME280;67067;46.850;7.578;2023-08-12T02:53:15;95694.44;;;18.20;52.30
77871;BME280;67067;46.850;7.578;2023-08-12T02:54:17;95694.16;;;18.22;52.07
77871;BME280;67067;46.850;7.578;2023-08-12T02:55:21;95694.44;;;18.20;51.93
77871;BME280;67067;46.850;7.578;2023-08-12T02:56:25;95697.50;;;18.14;52.33
77871;BME280;67067;46.850;7.578;2023-08-12T02:57:26;95693.09;;;18.23;51.88
77871;BME280;67067;46.850;7.578;2023-08-12T02:58:28;95697.50;;;18.14;51.96
77871;BME280;67067;46.850;7.578;2023-08-12T02:59:30;95695.25;;;18.21;52.12
77871;BME280;67067;46.850;7.578;2023-08-12T03:00:34;95698.44;;;18.23;51.96
77871;BME280;67067;46.850;7.578;2023-08-12T03:01:36;95696.84;;;18.22;51.92
77871;BME280;67067;46.850;7.578;2023-08-12T03:02:37;95695.53;;;18.19;51.93
77871;BME280;67067;46.850;7.578;2023-08-12T03:03:40;95691.22;;;18.24;51.74
77871;BME280;67067;46.850;7.578;2023-08-12T03:04:42;95692.03;;;18.24;51.57
77871;BME280;67067;46.850;7.578;2023-08-12T03:05:47;95693.09;;;18.23;51.75
77871;BME280;67067;46.850;7.578;2023-08-12T03:06:49;95692.56;;;18.21;51.82
77871;BME280;67067;46.850;7.578;2023-08-12T03:07:50;95692.94;;;18.14;52.05
77871;BME280;67067;46.850;7.578;2023-08-12T03:08:55;95695.75;;;18.23;51.62
77871;BME280;67067;46.850;7.578;2023-08-12T03:09:58;95696.56;;;18.24;51.53
77871;BME280;67067;46.850;7.578;2023-08-12T03:11:01;95699.53;;;18.22;51.75
77871;BME280;67067;46.850;7.578;2023-08-12T03:12:04;95692.06;;;18.19;51.65
77871;BME280;67067;46.850;7.578;2023-08-12T03:13:06;95688.81;;;18.22;51.98
77871;BME280;67067;46.850;7.578;2023-08-12T03:14:08;95693.09;;;18.23;52.08
77871;BME280;67067;46.850;7.578;2023-08-12T03:15:10;95697.13;;;18.20;52.18
77871;BME280;67067;46.850;7.578;2023-08-12T03:16:15;95696.34;;;18.20;51.96
77871;BME280;67067;46.850;7.578;2023-08-12T03:17:20;95696.34;;;18.20;51.80
77871;BME280;67067;46.850;7.578;2023-08-12T03:18:25;95687.22;;;18.21;51.77
77871;BME280;67067;46.850;7.578;2023-08-12T03:19:27;95687.22;;;18.21;51.61
77871;BME280;67067;46.850;7.578;2023-08-12T03:20:29;95692.41;;;18.12;51.81
77871;BME280;67067;46.850;7.578;2023-08-12T03:21:33;95692.06;;;18.19;51.64
77871;BME280;67067;46.850;7.578;2023-08-12T03:22:38;95693.75;;;18.15;52.09
77871;BME280;67067;46.850;7.578;2023-08-12T03:23:43;95693.22;;;18.13;52.47
77871;BME280;67067;46.850;7.578;2023-08-12T03:24:48;95687.28;;;18.16;52.24
77871;BME280;67067;46.850;7.578;2023-08-12T03:25:51;95689.41;;;18.19;52.04
77871;BME280;67067;46.850;7.578;2023-08-12T03:26:54;95690.47;;;18.18;52.23
77871;BME280;67067;46.850;7.578;2023-08-12T03:27:56;95693.34;;;18.21;52.12
77871;BME280;67067;46.850;7.578;2023-08-12T03:28:59;95692.56;;;18.21;52.33
77871;BME280;67067;46.850;7.578;2023-08-12T03:30:02;95689.41;;;18.19;52.46
77871;BME280;67067;46.850;7.578;2023-08-12T03:31:06;95691.78;;;18.20;52.11
77871;BME280;67067;46.850;7.578;2023-08-12T03:32:09;95690.56;;;18.13;51.96
77871;BME280;67067;46.850;7.578;2023-08-12T03:33:11;95685.19;;;18.13;52.49
77871;BME280;67067;46.850;7.578;2023-08-12T03:34:15;95687.06;;;18.12;52.22
77871;BME280;67067;46.850;7.578;2023-08-12T03:35:18;95682.78;;;18.11;52.21
77871;BME280;67067;46.850;7.578;2023-08-12T03:36:21;95683.38;;;18.08;52.53
77871;BME280;67067;46.850;7.578;2023-08-12T03:37:23;95687.94;;;18.07;52.36
77871;BME280;67067;46.850;7.578;2023-08-12T03:38:27;95688.22;;;18.06;52.22
77871;BME280;67067;46.850;7.578;2023-08-12T03:39:28;95690.13;;;18.05;52.35
77871;BME280;67067;46.850;7.578;2023-08-12T03:40:31;95687.94;;;18.07;52.35
77871;BME280;67067;46.850;7.578;2023-08-12T03:41:35;95684.75;;;18.05;52.07
77871;BME280;67067;46.850;7.578;2023-08-12T03:42:39;95690.41;;;18.04;52.16
77871;BME280;67067;46.850;7.578;2023-08-12T03:43:41;95694.00;;;17.94;52.48
77871;BME280;67067;46.850;7.578;2023-08-12T03:44:44;95688.06;;;17.97;52.39
77871;BME280;67067;46.850;7.578;2023-08-12T03:45:45;95686.97;;;17.98;52.51
77871;BME280;67067;46.850;7.578;2023-08-12T03:46:52;95684.28;;;17.98;52.44
77871;BME280;67067;46.850;7.578;2023-08-12T03:47:54;95691.88;;;17.91;52.74
77871;BME280;67067;46.850;7.578;2023-08-12T03:48:56;95686.59;;;17.86;52.83
77871;BME280;67067;46.850;7.578;2023-08-12T03:50:00;95688.19;;;17.87;52.60
77871;BME280;67067;46.850;7.578;2023-08-12T03:51:05;95688.13;;;17.92;52.62
77871;BME280;67067;46.850;7.578;2023-08-12T03:52:06;95685.31;;;17.83;52.99
77871;BME280;67067;46.850;7.578;2023-08-12T03:53:08;95691.88;;;17.91;52.72
77871;BME280;67067;46.850;7.578;2023-08-12T03:54:12;95692.31;;;17.98;52.62
77871;BME280;67067;46.850;7.578;2023-08-12T03:55:14;95688.56;;;17.99;52.57
77871;BME280;67067;46.850;7.578;2023-08-12T03:56:16;95691.47;;;18.03;52.46
77871;BME280;67067;46.850;7.578;2023-08-12T03:57:20;95689.06;;;18.01;52.44
77871;BME280;67067;46.850;7.578;2023-08-12T03:58:24;95689.59;;;18.03;52.36
77871;BME280;67067;46.850;7.578;2023-08-12T03:59:28;95688.28;;;18.01;52.42
77871;BME280;67067;46.850;7.578;2023-08-12T04:00:32;95689.88;;;18.02;52.81
77871;BME280;67067;46.850;7.578;2023-08-12T04:01:37;95686.94;;;18.03;52.70
77871;BME280;67067;46.850;7.578;2023-08-12T04:02:39;95684.25;;;18.03;52.52
77871;BME280;67067;46.850;7.578;2023-08-12T04:03:43;95685.84;;;18.04;52.40
77871;BME280;67067;46.850;7.578;2023-08-12T04:04:45;95687.72;;;18.04;52.79
77871;BME280;67067;46.850;7.578;2023-08-12T04:05:47;95691.81;;;17.96;52.88
77871;BME280;67067;46.850;7.578;2023-08-12T04:06:50;95684.47;;;18.07;52.18
77871;BME280;67067;46.850;7.578;2023-08-12T04:07:55;95691.91;;;18.10;52.71
77871;BME280;67067;46.850;7.578;2023-08-12T04:08:59;95687.38;;;18.11;52.78
77871;BME280;67067;46.850;7.578;2023-08-12T04:10:03;95685.97;;;18.13;52.67
77871;BME280;67067;46.850;7.578;2023-08-12T04:11:06;95689.47;;;18.14;52.42
77871;BME280;67067;46.850;7.578;2023-08-12T04:12:10;95685.97;;;18.13;52.89
77871;BME280;67067;46.850;7.578;2023-08-12T04:13:12;95683.03;;;18.15;52.70
77871;BME280;67067;46.850;7.578;2023-08-12T04:14:14;95682.09;;;18.05;52.75
77871;BME280;67067;46.850;7.578;2023-08-12T04:15:17;95686.22;;;18.17;52.70
77871;BME280;67067;46.850;7.578;2023-08-12T04:16:19;95681.44;;;18.14;52.64
77871;BME280;67067;46.850;7.578;2023-08-12T04:17:22;95686.78;;;18.14;52.75
77871;BME280;67067;46.850;7.578;2023-08-12T04:18:23;95686.94;;;18.03;52.97
77871;BME280;67067;46.850;7.578;2023-08-12T04:19:30;95687.88;;;18.13;52.85
77871;BME280;67067;46.850;7.578;2023-08-12T04:20:35;95694.25;;;18.17;52.41
77871;BME280;67067;46.850;7.578;2023-08-12T04:21:40;95691.06;;;18.15;52.76
77871;BME280;67067;46.850;7.578;2023-08-12T04:22:42;95692.06;;;18.19;52.27
77871;BME280;67067;46.850;7.578;2023-08-12T04:23:44;95687.94;;;18.07;52.45
77871;BME280;67067;46.850;7.578;2023-08-12T04:24:46;95687.81;;;18.18;52.09
77871;BME280;67067;46.850;7.578;2023-08-12T04:25:48;95688.00;;;18.21;52.28
77871;BME280;67067;46.850;7.578;2023-08-12T04:26:52;95680.53;;;18.18;52.22
77871;BME280;67067;46.850;7.578;2023-08-12T04:27:54;95687.13;;;18.07;52.38
77871;BME280;67067;46.850;7.578;2023-08-12T04:28:59;95690.03;;;18.11;52.36
77871;BME280;67067;46.850;7.578;2023-08-12T04:30:03;95690.56;;;18.13;52.30
77871;BME280;67067;46.850;7.578;2023-08-12T04:31:08;95688.97;;;18.12;52.36
77871;BME280;67067;46.850;7.578;2023-08-12T04:32:13;95686.06;;;18.08;52.68
77871;BME280;67067;46.850;7.578;2023-08-12T04:33:18;95681.50;;;18.08;52.39
77871;BME280;67067;46.850;7.578;2023-08-12T04:34:23;95683.69;;;18.06;52.92
77871;BME280;67067;46.850;7.578;2023-08-12T04:35:26;95685.78;;;18.10;52.79
77871;BME280;67067;46.850;7.578;2023-08-12T04:36:29;95688.97;;;18.12;52.38
77871;BME280;67067;46.850;7.578;2023-08-12T04:37:32;95683.09;;;18.10;52.71
77871;BME280;67067;46.850;7.578;2023-08-12T04:38:34;95682.34;;;18.04;53.07
77871;BME280;67067;46.850;7.578;2023-08-12T04:39:40;95679.97;;;18.02;52.86
77871;BME280;67067;46.850;7.578;2023-08-12T04:40:43;95680.13;;;18.11;52.97
77871;BME280;67067;46.850;7.578;2023-08-12T04:41:48;95685.19;;;18.13;52.95
77871;BME280;67067;46.850;7.578;2023-08-12T04:42:50;95680.03;;;18.16;53.07
77871;BME280;67067;46.850;7.578;2023-08-12T04:43:53;95679.47;;;18.19;52.78
77871;BME280;67067;46.850;7.578;2023-08-12T04:44:57;95679.47;;;18.19;52.57
77871;BME280;67067;46.850;7.578;2023-08-12T04:45:59;95678.09;;;18.22;52.81
77871;BME280;67067;46.850;7.578;2023-08-12T04:47:01;95686.66;;;18.24;52.53
77871;BME280;67067;46.850;7.578;2023-08-12T04:48:04;95682.91;;;18.25;52.61
77871;BME280;67067;46.850;7.578;2023-08-12T04:49:10;95681.50;;;18.28;52.47
77871;BME280;67067;46.850;7.578;2023-08-12T04:50:15;95680.72;;;18.27;52.44
77871;BME280;67067;46.850;7.578;2023-08-12T04:51:18;95684.41;;;18.31;52.22
77871;BME280;67067;46.850;7.578;2023-08-12T04:52:20;95687.09;;;18.31;52.53
77871;BME280;67067;46.850;7.578;2023-08-12T04:53:23;95691.88;;;18.34;52.24
77871;BME280;67067;46.850;7.578;2023-08-12T04:54:26;95685.72;;;18.34;52.35
77871;BME280;67067;46.850;7.578;2023-08-12T04:55:33;95687.53;;;18.39;52.36
77871;BME280;67067;46.850;7.578;2023-08-12T04:56:36;95684.56;;;18.40;52.40
77871;BME280;67067;46.850;7.578;2023-08-12T04:57:38;95690.72;;;18.41;52.43
77871;BME280;67067;46.850;7.578;2023-08-12T04:58:40;95691.53;;;18.41;52.83
77871;BME280;67067;46.850;7.578;2023-08-12T04:59:44;95691.53;;;18.41;53.15
77871;BME280;67067;46.850;7.578;2023-08-12T05:00:46;95692.31;;;18.42;53.03
77871;BME280;67067;46.850;7.578;2023-08-12T05:01:51;95696.06;;;18.41;53.23
77871;BME280;67067;46.850;7.578;2023-08-12T05:03:10;95688.84;;;18.41;52.95
77871;BME280;67067;46.850;7.578;2023-08-12T05:04:13;95694.13;;;18.46;52.97
77871;BME280;67067;46.850;7.578;2023-08-12T05:05:15;95692.53;;;18.45;53.56
77871;BME280;67067;46.850;7.578;2023-08-12T05:06:19;95697.31;;;18.48;53.55
77871;BME280;67067;46.850;7.578;2023-08-12T05:07:21;95695.13;;;18.50;53.20
77871;BME280;67067;46.850;7.578;2023-08-12T05:08:23;95692.94;;;18.53;53.43
77871;BME280;67067;46.850;7.578;2023-08-12T05:09:27;95695.31;;;18.54;53.29
77871;BME280;67067;46.850;7.578;2023-08-12T05:10:28;95687.38;;;18.49;53.25
77871;BME280;67067;46.850;7.578;2023-08-12T05:11:35;95692.06;;;18.57;52.68
77871;BME280;67067;46.850;7.578;2023-08-12T05:12:37;95686.19;;;18.55;52.53
77871;BME280;67067;46.850;7.578;2023-08-12T05:13:41;95687.19;;;18.59;52.50
77871;BME280;67067;46.850;7.578;2023-08-12T05:14:49;95691.78;;;18.59;52.74
77871;BME280;67067;46.850;7.578;2023-08-12T05:15:50;95692.56;;;18.59;52.51
77871;BME280;67067;46.850;7.578;2023-08-12T05:16:52;95693.38;;;18.60;52.59
77871;BME280;67067;46.850;7.578;2023-08-12T05:17:54;95686.44;;;18.59;53.13
77871;BME280;67067;46.850;7.578;2023-08-12T05:18:59;95681.25;;;18.62;52.49
77871;BME280;67067;46.850;7.578;2023-08-12T05:20:04;95686.34;;;18.64;52.54
77871;BME280;67067;46.850;7.578;2023-08-12T05:21:07;95685.47;;;18.69;52.22
77871;BME280;67067;46.850;7.578;2023-08-12T05:22:08;95692.28;;;18.61;52.88
77871;BME280;67067;46.850;7.578;2023-08-12T05:23:11;95688.66;;;18.71;52.19
77871;BME280;67067;46.850;7.578;2023-08-12T05:24:13;95685.91;;;18.76;52.59
77871;BME280;67067;46.850;7.578;2023-08-12T05:25:16;95685.00;;;18.80;52.62
77871;BME280;67067;46.850;7.578;2023-08-12T05:26:21;95683.13;;;18.81;52.16
77871;BME280;67067;46.850;7.578;2023-08-12T05:27:25;95677.75;;;18.81;52.34
77871;BME280;67067;46.850;7.578;2023-08-12T05:28:26;95686.81;;;18.85;52.31
77871;BME280;67067;46.850;7.578;2023-08-12T05:29:31;95687.59;;;18.86;52.29
77871;BME280;67067;46.850;7.578;2023-08-12T05:30:33;95684.72;;;18.82;52.07
77871;BME280;67067;46.850;7.578;2023-08-12T05:31:36;95686.22;;;18.88;52.09
77871;BME280;67067;46.850;7.578;2023-08-12T05:32:38;95690.50;;;18.89;51.64
77871;BME280;67067;46.850;7.578;2023-08-12T05:33:40;95691.66;;;18.83;52.12
77871;BME280;67067;46.850;7.578;2023-08-12T05:34:44;95691.28;;;18.90;52.04
77871;BME280;67067;46.850;7.578;2023-08-12T05:35:49;95691.66;;;18.83;51.81
77871;BME280;67067;46.850;7.578;2023-08-12T05:36:53;95683.72;;;18.92;51.49
77871;BME280;67067;46.850;7.578;2023-08-12T05:37:54;95694.03;;;18.85;51.69
77871;BME280;67067;46.850;7.578;2023-08-12T05:38:56;95685.31;;;18.93;51.79